This is the latest recevied weather packets stored in our database for station/object EA5CBT-13. If no packets are shown the sender has not sent any weather packets the latest 10 day(s).
| Time | Temp. | Humidity | Pressure | Rain* | Wind** | Luminosity | Snow |
|---|---|---|---|---|---|---|---|
| 1777752950 | 18.33° C | 81% | 1014 hPa | 0 mm | - | - | - |
| 1777746934 | 18.89° C | 81% | 1013.5 hPa | 0 mm | - | - | - |
| 1777745718 | 18.89° C | 80% | 1013.7 hPa | 0 mm | - | - | - |
| 1777743347 | 19.44° C | 77% | 1013.6 hPa | 0 mm | - | - | - |
| 1777742133 | 19.44° C | 78% | 1013.9 hPa | 0 mm | - | - | - |
| 1777739762 | 20° C | 76% | 1014.4 hPa | 0 mm | - | - | - |
| 1777737331 | 21.11° C | 73% | 1014.8 hPa | 0 mm | - | - | - |
| 1777730160 | 21.67° C | 70% | 1016.3 hPa | 0 mm | - | - | - |
| 1777728339 | 22.22° C | 71% | 1016.4 hPa | 0 mm | - | - | - |
| 1777722322 | 22.22° C | 71% | 1017.1 hPa | 0 mm | - | - | - |
| 1777721167 | 22.22° C | 71% | 1017.3 hPa | 0 mm | - | - | - |
| 1777720580 | 22.22° C | 69% | 1017.4 hPa | 0 mm | - | - | - |
| 1777716976 | 21.67° C | 72% | 1017.8 hPa | 0 mm | - | - | - |
| 1777715154 | 21.11° C | 73% | 1017.9 hPa | 0 mm | - | - | - |
| 1777713350 | 20.56° C | 74% | 1018 hPa | 0 mm | - | - | - |
| 1777710961 | 20° C | 78% | 1017.8 hPa | 0 mm | - | - | - |
| 1777706788 | 19.44° C | 75% | 1018 hPa | 0 mm | - | - | - |
| 1777703124 | 18.89° C | 77% | 1017.9 hPa | 0 mm | - | - | - |
| 1777699560 | 18.33° C | 78% | 1017.7 hPa | 0 mm | - | - | - |
| 1777694760 | 18.33° C | 77% | 1017.9 hPa | 0 mm | - | - | - |
| 1777691763 | 18.33° C | 79% | 1018 hPa | 0 mm | - | - | - |
| 1777686966 | 18.33° C | 79% | 1018.1 hPa | 0 mm | - | - | - |
| 1777685751 | 18.33° C | 78% | 1018.2 hPa | 0 mm | - | - | - |
| 1777683948 | 18.33° C | 78% | 1018.6 hPa | 0 mm | - | - | - |
| 1777679737 | 18.89° C | 78% | 1019.6 hPa | 0 mm | - | - | - |
* Rain latest hour (hover to see other rain measurements)
** Current wind speed in m/s (hover to see current wind gust speed)